Time;durP1;ratioP1;P1;durP2;ratioP2;P2;SDS_P1;SDS_P2;PMS_P1;PMS_P2;Temp;Humidity;BMP_temperature;BMP_pressure;BME280_temperature;BME280_humidity;BME280_pressure;Samples;Min_cycle;Max_cycle;Signal;HPM_P1;HPM_P2
2023/01/25 00:00:45;;;;;;;4.30;3.10;;;;;;;;;;5070263;28;20098;-46
2023/01/25 00:03:11;;;;;;;4.60;3.22;;;;;;;;;;5069959;28;20060;-45
2023/01/25 00:05:37;;;;;;;4.57;3.10;;;;;;;;;;5054659;28;20076;-46
2023/01/25 00:08:03;;;;;;;4.75;2.85;;;;;;;;;;5067585;28;20425;-46
2023/01/25 00:10:29;;;;;;;3.50;2.60;;;;;;;;;;5069153;28;20051;-44
2023/01/25 00:12:55;;;;;;;4.78;2.78;;;;;;;;;;5072642;28;20025;-46
2023/01/25 00:15:22;;;;;;;5.20;3.45;;;;;;;;;;5061547;28;20036;-46
2023/01/25 00:17:48;;;;;;;3.67;2.55;;;;;;;;;;5054609;28;20029;-46
2023/01/25 00:20:14;;;;;;;3.58;2.50;;;;;;;;;;5072058;28;20044;-45
2023/01/25 00:22:40;;;;;;;3.10;2.42;;;;;;;;;;5061242;28;20044;-45
2023/01/25 00:25:06;;;;;;;5.32;3.45;;;;;;;;;;5057415;28;20074;-45
2023/01/25 00:27:32;;;;;;;3.40;2.47;;;;;;;;;;5063184;28;20043;-44
2023/01/25 00:29:58;;;;;;;4.50;3.22;;;;;;;;;;5071687;28;20028;-47
2023/01/25 00:32:28;;;;;;;5.03;2.75;;;;;;;;;;5067307;28;20033;-45
2023/01/25 00:34:55;;;;;;;4.32;2.80;;;;;;;;;;5073869;28;20024;-45
2023/01/25 00:37:35;;;;;;;3.58;2.55;;;;;;;;;;5063950;28;20513;-45
2023/01/25 00:40:01;;;;;;;4.22;2.95;;;;;;;;;;5065750;28;20028;-45
2023/01/25 00:42:27;;;;;;;4.90;2.92;;;;;;;;;;5064866;28;20021;-45
2023/01/25 00:44:53;;;;;;;4.20;2.90;;;;;;;;;;5056659;28;20143;-46
2023/01/25 00:47:19;;;;;;;5.03;2.90;;;;;;;;;;5062068;28;20083;-45
2023/01/25 00:49:46;;;;;;;4.10;3.17;;;;;;;;;;5070518;28;20495;-45
2023/01/25 00:52:12;;;;;;;4.10;3.17;;;;;;;;;;5059028;28;20037;-45
2023/01/25 00:54:38;;;;;;;4.30;2.65;;;;;;;;;;5057793;28;20028;-46
2023/01/25 00:57:05;;;;;;;4.93;3.55;;;;;;;;;;5063633;28;21747;-45
2023/01/25 00:59:31;;;;;;;4.80;3.22;;;;;;;;;;5064290;28;20075;-44
2023/01/25 01:01:58;;;;;;;3.95;2.70;;;;;;;;;;5060412;28;20029;-46
2023/01/25 01:04:24;;;;;;;4.25;3.17;;;;;;;;;;5069607;28;20055;-45
2023/01/25 01:06:51;;;;;;;4.28;2.83;;;;;;;;;;5069563;28;20028;-46
2023/01/25 01:09:17;;;;;;;4.28;2.65;;;;;;;;;;5068721;28;20031;-52
2023/01/25 01:11:43;;;;;;;3.72;2.97;;;;;;;;;;5059516;28;20026;-46
2023/01/25 01:14:09;;;;;;;4.63;2.92;;;;;;;;;;5059647;28;20083;-46
2023/01/25 01:16:35;;;;;;;3.38;2.50;;;;;;;;;;5059061;28;20029;-46
2023/01/25 01:19:01;;;;;;;4.00;2.72;;;;;;;;;;5059621;28;20133;-45
2023/01/25 01:21:27;;;;;;;4.22;2.85;;;;;;;;;;5054770;28;20096;-47
2023/01/25 01:23:54;;;;;;;3.40;2.38;;;;;;;;;;5070102;28;20028;-47
2023/01/25 01:26:20;;;;;;;4.25;2.47;;;;;;;;;;5071401;28;20033;-45
2023/01/25 01:28:46;;;;;;;5.68;3.17;;;;;;;;;;5063771;28;20354;-50
2023/01/25 01:31:14;;;;;;;3.65;3.03;;;;;;;;;;5062288;28;20039;-46
2023/01/25 01:33:40;;;;;;;3.30;2.63;;;;;;;;;;5066208;28;20083;-46
2023/01/25 01:36:07;;;;;;;4.28;2.50;;;;;;;;;;5068223;28;20461;-48
2023/01/25 01:38:33;;;;;;;3.90;3.10;;;;;;;;;;5069277;28;20389;-46
2023/01/25 01:40:59;;;;;;;3.28;2.53;;;;;;;;;;5064950;28;20099;-47
2023/01/25 01:43:25;;;;;;;3.67;2.90;;;;;;;;;;5062353;28;20025;-46
2023/01/25 01:45:55;;;;;;;3.35;2.30;;;;;;;;;;5066630;28;20190;-46
2023/01/25 01:48:24;;;;;;;4.18;2.95;;;;;;;;;;5065058;28;20033;-45
2023/01/25 01:50:52;;;;;;;3.13;2.45;;;;;;;;;;5067593;28;20082;-46
2023/01/25 01:53:18;;;;;;;3.63;2.47;;;;;;;;;;5067298;28;20150;-45
2023/01/25 01:55:44;;;;;;;3.92;2.70;;;;;;;;;;5065088;28;20484;-45
2023/01/25 01:58:11;;;;;;;4.80;2.95;;;;;;;;;;5068510;28;20032;-46
2023/01/25 02:00:39;;;;;;;3.95;2.88;;;;;;;;;;5066325;28;20124;-46
2023/01/25 02:03:05;;;;;;;3.83;2.88;;;;;;;;;;5067224;28;20020;-45
2023/01/25 02:05:37;;;;;;;3.40;2.47;;;;;;;;;;5054955;28;20130;-44
2023/01/25 02:08:03;;;;;;;4.43;2.90;;;;;;;;;;5055796;28;20021;-45
2023/01/25 02:10:29;;;;;;;3.88;2.70;;;;;;;;;;5052698;28;20375;-44
2023/01/25 02:12:56;;;;;;;4.22;2.95;;;;;;;;;;5054374;28;20044;-45
2023/01/25 02:15:22;;;;;;;4.75;2.80;;;;;;;;;;5050879;28;20025;-46
2023/01/25 02:17:48;;;;;;;3.67;2.50;;;;;;;;;;5055856;28;20071;-45
2023/01/25 02:20:14;;;;;;;4.63;3.13;;;;;;;;;;5050927;28;20073;-45
2023/01/25 02:22:43;;;;;;;4.18;2.70;;;;;;;;;;5056242;28;20060;-45
2023/01/25 02:25:10;;;;;;;3.67;2.88;;;;;;;;;;5052507;28;20059;-44
2023/01/25 02:27:38;;;;;;;3.88;2.78;;;;;;;;;;5055791;28;20020;-45
2023/01/25 02:30:04;;;;;;;3.80;2.95;;;;;;;;;;5050979;28;20032;-46
2023/01/25 02:32:31;;;;;;;4.32;2.55;;;;;;;;;;5054852;28;20503;-43
2023/01/25 02:34:57;;;;;;;4.03;2.90;;;;;;;;;;5049792;28;20036;-46
2023/01/25 02:37:23;;;;;;;3.70;2.67;;;;;;;;;;5049489;28;20030;-45
2023/01/25 02:39:49;;;;;;;3.38;2.42;;;;;;;;;;5038350;28;20037;-45
2023/01/25 02:42:15;;;;;;;4.50;2.47;;;;;;;;;;5047029;28;20056;-46
2023/01/25 02:44:42;;;;;;;4.13;2.83;;;;;;;;;;5048864;28;20053;-45
2023/01/25 02:47:08;;;;;;;4.13;2.55;;;;;;;;;;5047649;28;20030;-46
2023/01/25 02:49:36;;;;;;;4.70;3.00;;;;;;;;;;5045765;28;20112;-45
2023/01/25 02:52:03;;;;;;;3.10;2.17;;;;;;;;;;5036147;28;20052;-45
2023/01/25 02:54:30;;;;;;;3.22;2.30;;;;;;;;;;5039677;28;20040;-44
2023/01/25 02:56:56;;;;;;;3.38;2.63;;;;;;;;;;5030797;28;20044;-46
2023/01/25 02:59:22;;;;;;;3.67;2.50;;;;;;;;;;5038412;28;20037;-45
2023/01/25 03:01:48;;;;;;;3.13;2.50;;;;;;;;;;5035553;28;20032;-47
2023/01/25 03:04:14;;;;;;;2.55;2.15;;;;;;;;;;5042154;28;20045;-48
2023/01/25 03:06:40;;;;;;;3.70;2.55;;;;;;;;;;5070494;28;20107;-45
2023/01/25 03:09:08;;;;;;;3.65;2.33;;;;;;;;;;5068037;28;20032;-46
2023/01/25 03:11:34;;;;;;;2.95;2.50;;;;;;;;;;5062752;28;20377;-45
2023/01/25 03:14:00;;;;;;;4.57;2.72;;;;;;;;;;5066541;28;20434;-46
2023/01/25 03:16:26;;;;;;;2.85;2.55;;;;;;;;;;5065823;28;20075;-45
2023/01/25 03:18:53;;;;;;;4.00;2.45;;;;;;;;;;5056287;28;20021;-45
2023/01/25 03:21:20;;;;;;;3.20;2.53;;;;;;;;;;5068786;28;20021;-47
2023/01/25 03:23:46;;;;;;;3.88;2.50;;;;;;;;;;5062280;28;20021;-45
2023/01/25 03:26:12;;;;;;;3.65;2.65;;;;;;;;;;5069733;28;20025;-45
2023/01/25 03:28:40;;;;;;;3.72;2.88;;;;;;;;;;5069042;28;20042;-46
2023/01/25 03:31:06;;;;;;;3.25;2.60;;;;;;;;;;5071569;28;20115;-45
2023/01/25 03:33:32;;;;;;;3.67;2.55;;;;;;;;;;5071897;28;20032;-44
2023/01/25 03:35:59;;;;;;;3.67;2.47;;;;;;;;;;5070539;28;20481;-45
2023/01/25 03:38:25;;;;;;;3.90;2.47;;;;;;;;;;5069072;28;20482;-45
2023/01/25 03:40:51;;;;;;;3.40;2.58;;;;;;;;;;5066869;28;20092;-45
2023/01/25 03:43:17;;;;;;;3.95;2.50;;;;;;;;;;5065577;28;20024;-44
2023/01/25 03:45:43;;;;;;;4.30;2.53;;;;;;;;;;5066012;28;20044;-45
2023/01/25 03:48:09;;;;;;;4.13;2.85;;;;;;;;;;5065419;28;20071;-44
2023/01/25 03:50:35;;;;;;;2.78;2.33;;;;;;;;;;5071421;28;20111;-45
2023/01/25 03:53:06;;;;;;;4.10;3.15;;;;;;;;;;5072831;28;20078;-47
2023/01/25 03:55:32;;;;;;;3.25;2.45;;;;;;;;;;5071751;28;20469;-44
2023/01/25 03:57:58;;;;;;;4.43;2.10;;;;;;;;;;5072576;28;20032;-45
2023/01/25 04:00:24;;;;;;;3.63;2.53;;;;;;;;;;5071961;28;20207;-45
2023/01/25 04:02:50;;;;;;;2.83;2.15;;;;;;;;;;5071851;28;20040;-45
2023/01/25 04:05:16;;;;;;;4.53;2.97;;;;;;;;;;5068966;28;20102;-46
2023/01/25 04:07:42;;;;;;;3.20;2.40;;;;;;;;;;5068938;28;20355;-45
2023/01/25 04:10:08;;;;;;;2.83;2.40;;;;;;;;;;5061613;28;20509;-45
2023/01/25 04:12:34;;;;;;;3.67;2.45;;;;;;;;;;5057391;28;20082;-44
2023/01/25 04:15:00;;;;;;;3.75;2.58;;;;;;;;;;5067471;28;20032;-45
2023/01/25 04:17:26;;;;;;;4.25;2.28;;;;;;;;;;5070118;28;20032;-45
2023/01/25 04:19:52;;;;;;;2.80;2.08;;;;;;;;;;5069889;28;20033;-45
2023/01/25 04:22:18;;;;;;;2.92;2.10;;;;;;;;;;5068507;28;20028;-45
2023/01/25 04:24:44;;;;;;;3.75;2.35;;;;;;;;;;5070293;28;20478;-45
2023/01/25 04:27:10;;;;;;;3.17;2.50;;;;;;;;;;5071947;28;20028;-45
2023/01/25 04:29:36;;;;;;;3.90;2.55;;;;;;;;;;5067050;28;20028;-46
2023/01/25 04:32:02;;;;;;;3.53;2.63;;;;;;;;;;5072482;28;20389;-45
2023/01/25 04:34:28;;;;;;;4.28;2.42;;;;;;;;;;5067541;28;20025;-44
2023/01/25 04:36:54;;;;;;;5.60;3.30;;;;;;;;;;5064999;28;20126;-46
2023/01/25 04:39:20;;;;;;;2.97;2.30;;;;;;;;;;5064501;28;20132;-45
2023/01/25 04:41:46;;;;;;;4.65;2.55;;;;;;;;;;5071096;28;20032;-45
2023/01/25 04:44:12;;;;;;;3.70;3.03;;;;;;;;;;5058280;28;20107;-45
2023/01/25 04:46:38;;;;;;;3.47;2.60;;;;;;;;;;5056457;28;20072;-46
2023/01/25 04:49:04;;;;;;;3.58;2.50;;;;;;;;;;5066526;28;20446;-45
2023/01/25 04:51:30;;;;;;;3.78;2.47;;;;;;;;;;5071088;28;20481;-44
2023/01/25 04:53:56;;;;;;;3.15;2.28;;;;;;;;;;5070949;28;20028;-45
2023/01/25 04:56:22;;;;;;;3.15;2.15;;;;;;;;;;5064699;28;20032;-46
2023/01/25 04:58:48;;;;;;;2.92;2.30;;;;;;;;;;5065504;28;20033;-45
2023/01/25 05:01:14;;;;;;;3.33;2.15;;;;;;;;;;5069524;28;20100;-46
2023/01/25 05:03:40;;;;;;;3.42;2.38;;;;;;;;;;5065461;28;20037;-44
2023/01/25 05:06:06;;;;;;;3.38;2.20;;;;;;;;;;5064187;28;20049;-45
2023/01/25 05:08:32;;;;;;;3.25;2.45;;;;;;;;;;5066086;28;20506;-44
2023/01/25 05:10:58;;;;;;;2.97;2.28;;;;;;;;;;5063797;28;20041;-45
2023/01/25 05:13:24;;;;;;;2.88;2.25;;;;;;;;;;5065458;28;20031;-45
2023/01/25 05:15:50;;;;;;;3.05;2.25;;;;;;;;;;5065395;28;20040;-45
2023/01/25 05:18:16;;;;;;;2.72;2.10;;;;;;;;;;5069082;28;20473;-45
2023/01/25 05:20:42;;;;;;;2.38;2.00;;;;;;;;;;5069218;28;20035;-45
2023/01/25 05:23:08;;;;;;;2.33;2.00;;;;;;;;;;5068955;28;20381;-45
2023/01/25 05:28:19;;;;;;;3.33;2.28;;;;;;;;;;5066835;28;20028;-45
2023/01/25 05:30:45;;;;;;;3.15;2.13;;;;;;;;;;5063374;28;20462;-45
2023/01/25 05:33:10;;;;;;;2.83;2.17;;;;;;;;;;5064633;28;20025;-45
2023/01/25 05:35:36;;;;;;;2.97;2.33;;;;;;;;;;5065889;28;20043;-45
2023/01/25 05:38:02;;;;;;;2.95;2.25;;;;;;;;;;5067435;28;20028;-46
2023/01/25 05:40:28;;;;;;;2.40;2.05;;;;;;;;;;5063802;28;20037;-45
2023/01/25 05:42:56;;;;;;;3.40;2.20;;;;;;;;;;5066357;28;20122;-45
2023/01/25 05:45:22;;;;;;;3.10;2.30;;;;;;;;;;5067819;28;20032;-45
2023/01/25 05:47:51;;;;;;;2.55;2.05;;;;;;;;;;5067526;28;20024;-45
2023/01/25 05:50:17;;;;;;;2.72;2.10;;;;;;;;;;5066925;28;20363;-45
2023/01/25 05:52:45;;;;;;;5.63;2.20;;;;;;;;;;5066873;28;20028;-46
2023/01/25 05:55:11;;;;;;;4.72;2.80;;;;;;;;;;5067814;28;20073;-45
2023/01/25 05:57:37;;;;;;;2.45;1.85;;;;;;;;;;5068602;28;20025;-47
2023/01/25 06:00:03;;;;;;;3.58;2.28;;;;;;;;;;5065993;28;20056;-45
2023/01/25 06:02:30;;;;;;;4.25;2.38;;;;;;;;;;5070381;28;20035;-44
2023/01/25 06:04:56;;;;;;;3.35;2.03;;;;;;;;;;5069314;28;20059;-46
2023/01/25 06:07:22;;;;;;;2.97;2.25;;;;;;;;;;5069272;28;20100;-46
2023/01/25 06:09:48;;;;;;;3.53;2.20;;;;;;;;;;5062665;28;20083;-46
2023/01/25 06:12:15;;;;;;;3.22;2.20;;;;;;;;;;5064364;28;20049;-46
2023/01/25 06:14:41;;;;;;;2.95;2.20;;;;;;;;;;5062950;28;20033;-44
2023/01/25 06:17:07;;;;;;;3.47;2.05;;;;;;;;;;5070535;28;20021;-46
2023/01/25 06:19:33;;;;;;;3.20;2.15;;;;;;;;;;5066574;28;20029;-44
2023/01/25 06:21:59;;;;;;;5.93;2.33;;;;;;;;;;5065670;28;20111;-44
2023/01/25 06:24:25;;;;;;;3.08;2.05;;;;;;;;;;5056906;28;20100;-45
2023/01/25 06:26:51;;;;;;;3.75;1.90;;;;;;;;;;5069900;28;20028;-45
2023/01/25 06:29:17;;;;;;;2.92;2.15;;;;;;;;;;5058711;28;20048;-47
2023/01/25 06:31:43;;;;;;;3.47;2.28;;;;;;;;;;5060084;28;20494;-45
2023/01/25 06:34:09;;;;;;;3.00;2.00;;;;;;;;;;5071846;28;20100;-45
2023/01/25 06:36:35;;;;;;;2.88;1.80;;;;;;;;;;5069747;28;20520;-44
2023/01/25 06:39:01;;;;;;;2.83;2.13;;;;;;;;;;5066892;28;20108;-45
2023/01/25 06:41:26;;;;;;;3.47;2.25;;;;;;;;;;5067230;28;20385;-45
2023/01/25 06:43:54;;;;;;;4.22;2.15;;;;;;;;;;5066080;28;20190;-43
2023/01/25 06:46:20;;;;;;;3.17;2.38;;;;;;;;;;5074132;28;20028;-43
2023/01/25 06:48:46;;;;;;;3.45;2.28;;;;;;;;;;5065795;28;20029;-43
2023/01/25 06:51:13;;;;;;;3.95;2.08;;;;;;;;;;5058854;28;20025;-45
2023/01/25 06:53:40;;;;;;;2.78;1.80;;;;;;;;;;5069587;28;20485;-46
2023/01/25 06:56:08;;;;;;;2.45;1.90;;;;;;;;;;5072262;28;20029;-45
2023/01/25 06:58:34;;;;;;;4.07;1.80;;;;;;;;;;5070540;28;20028;-42
2023/01/25 07:01:01;;;;;;;3.33;1.77;;;;;;;;;;5067629;28;20036;-44
2023/01/25 07:03:27;;;;;;;4.82;2.13;;;;;;;;;;5073416;28;20031;-43
2023/01/25 07:05:57;;;;;;;5.32;2.10;;;;;;;;;;5071791;28;20044;-44
2023/01/25 07:08:23;;;;;;;2.95;2.13;;;;;;;;;;5063371;28;20077;-43
2023/01/25 07:10:57;;;;;;;3.88;2.08;;;;;;;;;;5069322;28;20036;-44
2023/01/25 07:13:23;;;;;;;3.78;2.25;;;;;;;;;;5068090;28;20102;-43
2023/01/25 07:16:16;;;;;;;3.88;2.17;;;;;;;;;;5048032;28;20021;-43
2023/01/25 07:18:41;;;;;;;;;;;;;;;;;;5059941;28;20123;-43
2023/01/25 07:21:09;;;;;;;5.15;2.67;;;;;;;;;;5046860;28;20042;-43
2023/01/25 07:23:37;;;;;;;2.65;2.00;;;;;;;;;;5070611;28;20051;-43
2023/01/25 07:26:03;;;;;;;4.05;2.15;;;;;;;;;;5068528;28;20032;-45
2023/01/25 07:28:30;;;;;;;3.70;2.33;;;;;;;;;;5072230;28;20099;-43
2023/01/25 07:30:56;;;;;;;4.85;2.28;;;;;;;;;;5072258;28;20489;-44
2023/01/25 07:33:22;;;;;;;3.50;2.30;;;;;;;;;;5073011;28;20033;-44
2023/01/25 07:35:49;;;;;;;4.03;2.08;;;;;;;;;;5071302;28;20355;-43
2023/01/25 07:38:15;;;;;;;3.95;2.13;;;;;;;;;;5065392;28;20485;-43
2023/01/25 07:40:41;;;;;;;3.50;2.10;;;;;;;;;;5070218;28;20028;-43
2023/01/25 07:43:07;;;;;;;3.05;2.13;;;;;;;;;;5062414;28;20052;-43
2023/01/25 07:45:33;;;;;;;4.47;2.13;;;;;;;;;;5057524;28;20116;-43
2023/01/25 07:48:00;;;;;;;3.15;2.17;;;;;;;;;;5062660;28;20037;-43
2023/01/25 07:50:26;;;;;;;5.40;2.30;;;;;;;;;;5071503;28;20035;-43
2023/01/25 07:52:53;;;;;;;5.40;2.65;;;;;;;;;;5064620;28;20052;-46
2023/01/25 07:55:19;;;;;;;6.97;2.55;;;;;;;;;;5058088;28;20083;-49
2023/01/25 07:57:45;;;;;;;4.25;2.33;;;;;;;;;;5060489;28;20478;-43
2023/01/25 08:00:12;;;;;;;6.78;2.75;;;;;;;;;;5064947;28;20074;-43
2023/01/25 08:02:38;;;;;;;6.28;2.53;;;;;;;;;;5070446;28;20040;-48
2023/01/25 08:05:05;;;;;;;4.97;2.40;;;;;;;;;;5070713;28;20044;-43
2023/01/25 08:07:31;;;;;;;6.03;2.40;;;;;;;;;;5056936;28;20088;-43
2023/01/25 08:09:57;;;;;;;5.35;2.75;;;;;;;;;;5063267;28;20036;-43
2023/01/25 08:12:25;;;;;;;6.28;2.63;;;;;;;;;;5062848;28;20037;-45
2023/01/25 08:14:51;;;;;;;8.27;3.55;;;;;;;;;;5067423;28;20024;-43
2023/01/25 08:17:17;;;;;;;4.13;2.50;;;;;;;;;;5063766;28;20036;-45
2023/01/25 08:19:43;;;;;;;5.63;2.83;;;;;;;;;;5064075;28;20028;-44
2023/01/25 08:22:11;;;;;;;6.13;2.10;;;;;;;;;;5065380;28;20025;-43
2023/01/25 08:24:37;;;;;;;5.45;2.65;;;;;;;;;;5060966;28;20025;-44
2023/01/25 08:27:03;;;;;;;4.60;2.65;;;;;;;;;;5071461;28;20031;-43
2023/01/25 08:29:29;;;;;;;4.85;2.42;;;;;;;;;;5069985;28;20044;-43
2023/01/25 08:31:55;;;;;;;3.20;2.13;;;;;;;;;;5069916;28;20397;-43
2023/01/25 08:34:21;;;;;;;5.93;2.78;;;;;;;;;;5064991;28;20037;-44
2023/01/25 08:36:48;;;;;;;4.18;2.42;;;;;;;;;;5068128;28;20484;-43
2023/01/25 08:39:16;;;;;;;7.63;2.85;;;;;;;;;;5066531;28;20036;-44
2023/01/25 08:41:44;;;;;;;6.18;2.60;;;;;;;;;;5065222;28;20551;-44
2023/01/25 08:44:10;;;;;;;4.57;2.50;;;;;;;;;;5058623;28;20067;-43
2023/01/25 08:46:36;;;;;;;5.72;2.80;;;;;;;;;;5056980;28;20024;-44
2023/01/25 08:49:02;;;;;;;5.88;2.55;;;;;;;;;;5060241;28;20039;-43
2023/01/25 08:51:30;;;;;;;4.80;2.97;;;;;;;;;;5063981;28;20032;-44
2023/01/25 08:53:56;;;;;;;5.00;2.80;;;;;;;;;;5062496;28;20029;-44
2023/01/25 08:56:22;;;;;;;6.70;2.75;;;;;;;;;;5070405;28;20042;-43
2023/01/25 08:58:49;;;;;;;4.43;2.40;;;;;;;;;;5062166;28;20094;-44
2023/01/25 09:01:15;;;;;;;3.70;2.10;;;;;;;;;;5069154;28;20393;-43
2023/01/25 09:03:43;;;;;;;5.05;3.22;;;;;;;;;;5061726;28;20092;-45
2023/01/25 09:06:09;;;;;;;6.35;2.78;;;;;;;;;;5060362;28;20045;-43
2023/01/25 09:08:36;;;;;;;4.90;2.35;;;;;;;;;;5067287;28;20029;-42
2023/01/25 09:11:03;;;;;;;5.18;2.55;;;;;;;;;;5066784;28;20028;-43
2023/01/25 09:13:29;;;;;;;3.45;2.15;;;;;;;;;;5070067;28;20389;-42
2023/01/25 09:15:59;;;;;;;8.35;2.80;;;;;;;;;;5070148;28;20036;-43
2023/01/25 09:18:26;;;;;;;4.95;2.60;;;;;;;;;;5062932;28;20025;-43
2023/01/25 09:20:51;;;;;;;3.13;1.98;;;;;;;;;;5068594;28;20028;-45
2023/01/25 09:23:21;;;;;;;5.25;2.63;;;;;;;;;;5068966;28;20107;-43
2023/01/25 09:25:47;;;;;;;6.25;2.35;;;;;;;;;;5068712;28;20028;-43
2023/01/25 09:28:13;;;;;;;5.40;2.80;;;;;;;;;;5070778;28;20024;-43
2023/01/25 09:30:41;;;;;;;3.58;2.58;;;;;;;;;;5067161;28;20032;-44
2023/01/25 09:33:07;;;;;;;4.57;2.70;;;;;;;;;;5067526;28;20024;-44
2023/01/25 09:35:34;;;;;;;4.68;2.78;;;;;;;;;;5072441;28;20034;-43
2023/01/25 09:38:00;;;;;;;4.88;2.50;;;;;;;;;;5060625;28;20163;-44
2023/01/25 09:40:29;;;;;;;4.68;2.92;;;;;;;;;;5068521;28;20059;-43
2023/01/25 09:42:58;;;;;;;6.13;2.40;;;;;;;;;;5064050;28;20036;-44
2023/01/25 09:45:31;;;;;;;5.35;2.58;;;;;;;;;;5057483;28;20033;-43
2023/01/25 09:48:06;;;;;;;3.15;2.03;;;;;;;;;;5061625;28;20082;-44
2023/01/25 09:50:35;;;;;;;5.15;2.35;;;;;;;;;;5067952;28;20477;-42
2023/01/25 09:53:20;;;;;;;3.55;2.35;;;;;;;;;;5069109;28;20117;-43
2023/01/25 09:55:54;;;;;;;7.93;3.20;;;;;;;;;;5066121;28;20033;-43
2023/01/25 09:58:40;;;;;;;3.33;2.17;;;;;;;;;;5058565;28;20599;-43
2023/01/25 10:01:16;;;;;;;4.40;2.33;;;;;;;;;;5067685;28;20081;-45
2023/01/25 10:03:48;;;;;;;3.95;2.25;;;;;;;;;;5070047;28;20066;-43
2023/01/25 10:06:16;;;;;;;4.68;3.08;;;;;;;;;;5064532;28;20056;-45
2023/01/25 10:09:02;;;;;;;4.68;2.75;;;;;;;;;;5063482;28;20032;-45
2023/01/25 10:11:32;;;;;;;4.05;2.42;;;;;;;;;;5046652;28;20044;-43
2023/01/25 10:13:58;;;;;;;4.47;2.67;;;;;;;;;;5060590;28;20021;-44
2023/01/25 10:16:31;;;;;;;4.30;2.58;;;;;;;;;;5062949;28;20481;-43
2023/01/25 10:19:02;;;;;;;5.55;2.72;;;;;;;;;;5071829;28;20077;-44
2023/01/25 10:21:36;;;;;;;4.07;2.67;;;;;;;;;;5074492;28;20031;-43
2023/01/25 10:24:17;;;;;;;4.70;2.42;;;;;;;;;;5067199;28;20021;-43
2023/01/25 10:26:47;;;;;;;5.10;3.30;;;;;;;;;;5068410;28;20029;-43
2023/01/25 10:29:13;;;;;;;2.60;2.22;;;;;;;;;;5071450;28;20135;-43
2023/01/25 10:31:43;;;;;;;3.88;2.25;;;;;;;;;;5069520;28;20063;-43
2023/01/25 10:34:33;;;;;;;3.95;2.80;;;;;;;;;;5065997;28;20032;-45
2023/01/25 10:37:04;;;;;;;4.20;3.05;;;;;;;;;;5062908;28;20055;-43
2023/01/25 10:39:32;;;;;;;3.85;2.85;;;;;;;;;;5071749;28;20058;-43
2023/01/25 10:42:04;;;;;;;4.70;2.33;;;;;;;;;;5070134;28;20020;-44
2023/01/25 10:44:30;;;;;;;3.88;2.50;;;;;;;;;;5069607;28;20103;-42
2023/01/25 10:47:15;;;;;;;3.50;2.80;;;;;;;;;;5069413;28;20017;-43
2023/01/25 10:49:48;;;;;;;3.15;2.22;;;;;;;;;;5071932;28;20037;-44
2023/01/25 10:52:20;;;;;;;4.32;2.47;;;;;;;;;;5073372;28;20027;-43
2023/01/25 10:54:49;;;;;;;4.07;2.85;;;;;;;;;;5071012;28;20393;-45
2023/01/25 10:57:18;;;;;;;3.47;2.22;;;;;;;;;;5067038;28;20028;-44
2023/01/25 10:59:48;;;;;;;3.70;2.50;;;;;;;;;;5070053;28;20085;-44
2023/01/25 11:02:41;;;;;;;7.50;2.70;;;;;;;;;;5074110;28;20032;-43
2023/01/25 11:05:07;;;;;;;;;;;;;;;;;;5067386;28;20048;-44
2023/01/25 11:07:33;;;;;;;3.53;2.25;;;;;;;;;;5063286;28;19909;-43
2023/01/25 11:09:59;;;;;;;6.55;3.17;;;;;;;;;;5066879;28;20028;-44
2023/01/25 11:12:25;;;;;;;6.25;3.75;;;;;;;;;;5073726;28;20114;-44
2023/01/25 11:14:51;;;;;;;4.65;2.78;;;;;;;;;;5066229;28;20048;-43
2023/01/25 11:17:29;;;;;;;6.22;2.80;;;;;;;;;;5073784;28;20017;-43
2023/01/25 11:20:17;;;;;;;3.70;2.33;;;;;;;;;;5072094;28;20020;-43
2023/01/25 11:22:54;;;;;;;4.15;2.53;;;;;;;;;;5071213;28;20032;-43
2023/01/25 11:25:38;;;;;;;3.28;2.03;;;;;;;;;;5069506;28;20146;-43
2023/01/25 11:28:11;;;;;;;3.50;2.15;;;;;;;;;;5065220;28;20048;-43
2023/01/25 11:30:37;;;;;;;4.25;2.55;;;;;;;;;;5069739;28;20140;-44
2023/01/25 11:33:08;;;;;;;5.72;2.80;;;;;;;;;;5068431;28;20033;-43
2023/01/25 11:35:35;;;;;;;4.10;2.70;;;;;;;;;;5060736;28;20063;-44
2023/01/25 11:38:04;;;;;;;4.25;2.75;;;;;;;;;;5064180;28;20389;-44
2023/01/25 11:40:43;;;;;;;3.55;2.72;;;;;;;;;;5065610;28;20063;-43
2023/01/25 11:43:28;;;;;;;3.38;2.35;;;;;;;;;;5072233;28;20028;-44
2023/01/25 11:46:05;;;;;;;4.18;2.38;;;;;;;;;;5065096;28;20029;-46
2023/01/25 11:48:42;;;;;;;4.47;2.65;;;;;;;;;;5056729;28;20508;-43
2023/01/25 11:51:12;;;;;;;3.33;2.47;;;;;;;;;;5069687;28;20082;-45
2023/01/25 11:53:54;;;;;;;4.55;2.42;;;;;;;;;;5064122;28;20078;-44
2023/01/25 11:56:38;;;;;;;5.35;3.03;;;;;;;;;;5069141;28;20035;-46
2023/01/25 11:59:04;;;;;;;4.55;3.00;;;;;;;;;;5064644;28;20037;-44
2023/01/25 12:01:35;;;;;;;4.70;2.53;;;;;;;;;;5072348;28;20043;-43
2023/01/25 12:04:01;;;;;;;4.55;3.10;;;;;;;;;;5072778;28;20555;-44
2023/01/25 12:07:05;;;;;;;4.05;2.70;;;;;;;;;;5071251;28;20104;-44
2023/01/25 12:10:03;;;;;;;4.70;2.92;;;;;;;;;;4968400;28;20038;-43
2023/01/25 12:12:41;;;;;;;5.50;3.05;;;;;;;;;;4944227;28;20551;-43
2023/01/25 12:15:24;;;;;;;3.55;2.70;;;;;;;;;;4968924;28;20059;-44
2023/01/25 12:18:05;;;;;;;4.70;2.67;;;;;;;;;;4977464;28;20034;-44
2023/01/25 12:20:51;;;;;;;3.72;2.30;;;;;;;;;;4965527;28;20078;-43
2023/01/25 12:23:36;;;;;;;6.05;2.90;;;;;;;;;;4965773;28;20027;-44
2023/01/25 12:26:10;;;;;;;5.40;3.50;;;;;;;;;;4963980;28;20037;-44
2023/01/25 12:28:41;;;;;;;4.10;2.60;;;;;;;;;;4969826;28;20053;-43
2023/01/25 12:31:09;;;;;;;3.67;2.72;;;;;;;;;;4972245;28;20035;-45
2023/01/25 12:33:51;;;;;;;6.90;3.17;;;;;;;;;;4971104;28;20577;-44
2023/01/25 12:36:21;;;;;;;5.63;3.33;;;;;;;;;;4970030;28;20468;-44
2023/01/25 12:38:54;;;;;;;5.53;3.55;;;;;;;;;;4967660;28;20027;-44
2023/01/25 12:41:25;;;;;;;5.90;3.13;;;;;;;;;;5061400;28;20150;-44
2023/01/25 12:43:54;;;;;;;5.93;3.08;;;;;;;;;;5070347;28;20032;-44
2023/01/25 12:46:40;;;;;;;5.10;3.35;;;;;;;;;;5064918;28;20107;-44
2023/01/25 12:49:15;;;;;;;7.65;3.88;;;;;;;;;;5065740;28;20443;-44
2023/01/25 12:51:42;;;;;;;5.38;3.58;;;;;;;;;;5071923;28;20039;-45
2023/01/25 12:54:27;;;;;;;5.10;3.25;;;;;;;;;;5070950;28;20046;-44
2023/01/25 12:56:57;;;;;;;4.57;3.08;;;;;;;;;;5057962;28;20087;-45
2023/01/25 12:59:29;;;;;;;5.70;3.25;;;;;;;;;;5060869;28;20059;-44
2023/01/25 13:01:57;;;;;;;4.32;2.83;;;;;;;;;;5057817;28;20035;-45
2023/01/25 13:04:42;;;;;;;4.45;3.10;;;;;;;;;;5077899;28;20499;-44
2023/01/25 13:07:20;;;;;;;4.55;3.17;;;;;;;;;;5074215;28;20028;-44
2023/01/25 13:10:12;;;;;;;4.80;3.10;;;;;;;;;;5069808;28;20071;-44
2023/01/25 13:12:38;;;;;;;;;;;;;;;;;;5070751;28;20170;-43
2023/01/25 13:15:24;;;;;;;3.97;3.00;;;;;;;;;;5067785;28;20023;-44
2023/01/25 13:17:50;;;;;;;5.68;3.28;;;;;;;;;;5062887;28;20036;-44
2023/01/25 13:20:36;;;;;;;5.93;3.00;;;;;;;;;;5061815;28;20024;-45
2023/01/25 13:23:02;;;;;;;5.32;3.13;;;;;;;;;;5054740;28;20393;-43
2023/01/25 13:25:28;;;;;;;4.72;3.08;;;;;;;;;;5069311;28;20025;-44
2023/01/25 13:28:14;;;;;;;4.25;2.90;;;;;;;;;;5065973;28;20047;-44
2023/01/25 13:30:50;;;;;;;4.18;2.92;;;;;;;;;;5075573;28;20041;-45
2023/01/25 13:33:31;;;;;;;6.35;3.58;;;;;;;;;;5061706;28;20025;-45
2023/01/25 13:35:57;;;;;;;5.75;3.30;;;;;;;;;;5070004;28;20016;-45
2023/01/25 13:38:23;;;;;;;5.88;3.60;;;;;;;;;;5069487;28;20100;-44
2023/01/25 13:41:10;;;;;;;4.60;3.13;;;;;;;;;;5066565;28;20044;-46
2023/01/25 13:43:37;;;;;;;4.50;3.35;;;;;;;;;;5061685;28;20095;-44
2023/01/25 13:46:04;;;;;;;5.68;3.28;;;;;;;;;;5073321;28;20043;-45
2023/01/25 13:48:30;;;;;;;5.72;3.78;;;;;;;;;;5063222;28;20032;-43
2023/01/25 13:51:13;;;;;;;5.10;3.22;;;;;;;;;;5069397;28;20052;-44
2023/01/25 13:53:39;;;;;;;5.93;3.20;;;;;;;;;;5061624;28;20020;-44
2023/01/25 13:56:05;;;;;;;7.07;3.50;;;;;;;;;;5068099;28;20028;-45
2023/01/25 13:58:32;;;;;;;5.50;3.35;;;;;;;;;;5068321;28;20059;-44
2023/01/25 14:01:05;;;;;;;4.97;3.28;;;;;;;;;;5065688;28;20036;-44
2023/01/25 14:03:34;;;;;;;5.13;3.53;;;;;;;;;;5062424;28;20032;-44
2023/01/25 14:06:04;;;;;;;4.65;3.22;;;;;;;;;;5069445;28;20044;-44
2023/01/25 14:08:31;;;;;;;7.63;4.07;;;;;;;;;;5059627;28;20158;-43
2023/01/25 14:10:57;;;;;;;6.53;3.95;;;;;;;;;;5067567;28;20035;-44
2023/01/25 14:13:23;;;;;;;4.60;3.15;;;;;;;;;;5059893;28;20485;-45
2023/01/25 14:15:57;;;;;;;4.55;3.10;;;;;;;;;;5060299;28;20020;-43
2023/01/25 14:18:37;;;;;;;6.45;3.75;;;;;;;;;;5057579;28;20029;-43
2023/01/25 14:21:11;;;;;;;5.90;3.80;;;;;;;;;;5071051;28;20167;-44
2023/01/25 14:23:37;;;;;;;4.88;3.47;;;;;;;;;;5067342;28;20074;-44
2023/01/25 14:26:03;;;;;;;5.22;3.67;;;;;;;;;;5063003;28;20036;-45
2023/01/25 14:28:30;;;;;;;6.05;4.20;;;;;;;;;;5070617;28;20481;-44
2023/01/25 14:31:00;;;;;;;5.35;3.28;;;;;;;;;;5065517;28;20039;-44
2023/01/25 14:33:28;;;;;;;6.20;3.55;;;;;;;;;;5055701;28;20371;-44
2023/01/25 14:35:54;;;;;;;5.40;3.42;;;;;;;;;;5064469;28;20525;-44
2023/01/25 14:38:25;;;;;;;5.10;3.53;;;;;;;;;;5070085;28;20035;-45
2023/01/25 14:40:54;;;;;;;6.53;3.72;;;;;;;;;;5056882;28;20029;-45
2023/01/25 14:43:21;;;;;;;5.43;3.55;;;;;;;;;;5059636;28;20404;-45
2023/01/25 14:45:47;;;;;;;6.15;3.83;;;;;;;;;;5063613;28;20024;-47
2023/01/25 14:48:34;;;;;;;4.15;2.88;;;;;;;;;;5072796;28;20020;-47
2023/01/25 14:51:05;;;;;;;4.70;2.83;;;;;;;;;;5069383;28;20044;-45
2023/01/25 14:53:31;;;;;;;6.13;3.67;;;;;;;;;;5070562;28;20481;-43
2023/01/25 14:55:57;;;;;;;5.00;3.53;;;;;;;;;;5062739;28;20040;-45